sensor_id;sensor_type;location;lat;lon;timestamp;temperature;humidity
6098;DHT22;3077;50.922;6.584;2023-04-03T00:01:28;4.20;99.90
6098;DHT22;3077;50.922;6.584;2023-04-03T00:03:54;4.30;99.90
6098;DHT22;3077;50.922;6.584;2023-04-03T00:06:20;4.20;99.90
6098;DHT22;3077;50.922;6.584;2023-04-03T00:08:46;4.30;99.90
6098;DHT22;3077;50.922;6.584;2023-04-03T00:11:12;4.30;99.90
6098;DHT22;3077;50.922;6.584;2023-04-03T00:13:38;4.30;99.90
6098;DHT22;3077;50.922;6.584;2023-04-03T00:16:04;4.30;99.90
6098;DHT22;3077;50.922;6.584;2023-04-03T00:18:31;4.30;99.90
6098;DHT22;3077;50.922;6.584;2023-04-03T00:20:57;4.20;99.90
6098;DHT22;3077;50.922;6.584;2023-04-03T00:23:23;4.10;99.90
6098;DHT22;3077;50.922;6.584;2023-04-03T00:25:52;4.10;99.90
6098;DHT22;3077;50.922;6.584;2023-04-03T00:28:18;4.00;99.90
6098;DHT22;3077;50.922;6.584;2023-04-03T00:30:44;3.90;99.90
6098;DHT22;3077;50.922;6.584;2023-04-03T00:33:13;3.80;99.90
6098;DHT22;3077;50.922;6.584;2023-04-03T00:35:39;3.80;99.90
6098;DHT22;3077;50.922;6.584;2023-04-03T00:38:05;3.70;99.90
6098;DHT22;3077;50.922;6.584;2023-04-03T00:40:35;3.70;99.90
6098;DHT22;3077;50.922;6.584;2023-04-03T00:43:01;3.60;99.90
6098;DHT22;3077;50.922;6.584;2023-04-03T00:45:33;3.60;99.90
6098;DHT22;3077;50.922;6.584;2023-04-03T00:48:01;3.60;99.90
6098;DHT22;3077;50.922;6.584;2023-04-03T00:50:29;3.50;99.90
6098;DHT22;3077;50.922;6.584;2023-04-03T00:52:56;3.50;99.90
6098;DHT22;3077;50.922;6.584;2023-04-03T00:55:22;3.50;99.90
6098;DHT22;3077;50.922;6.584;2023-04-03T00:57:48;3.40;99.90
6098;DHT22;3077;50.922;6.584;2023-04-03T01:00:16;3.40;99.90
6098;DHT22;3077;50.922;6.584;2023-04-03T01:02:43;3.40;99.90
6098;DHT22;3077;50.922;6.584;2023-04-03T01:05:09;3.30;99.90
6098;DHT22;3077;50.922;6.584;2023-04-03T01:07:35;3.30;99.90
6098;DHT22;3077;50.922;6.584;2023-04-03T01:10:06;3.30;99.90
6098;DHT22;3077;50.922;6.584;2023-04-03T01:12:38;3.20;99.90
6098;DHT22;3077;50.922;6.584;2023-04-03T01:15:10;3.20;99.90
6098;DHT22;3077;50.922;6.584;2023-04-03T01:17:41;3.20;99.90
6098;DHT22;3077;50.922;6.584;2023-04-03T01:28:13;3.10;99.90
6098;DHT22;3077;50.922;6.584;2023-04-03T01:30:47;3.00;99.90
6098;DHT22;3077;50.922;6.584;2023-04-03T01:33:14;3.00;99.90
6098;DHT22;3077;50.922;6.584;2023-04-03T01:35:40;3.00;99.90
6098;DHT22;3077;50.922;6.584;2023-04-03T01:38:06;2.90;99.90
6098;DHT22;3077;50.922;6.584;2023-04-03T01:40:32;2.90;99.90
6098;DHT22;3077;50.922;6.584;2023-04-03T01:42:57;2.90;99.90
6098;DHT22;3077;50.922;6.584;2023-04-03T01:45:23;2.90;99.90
6098;DHT22;3077;50.922;6.584;2023-04-03T01:47:49;3.00;99.90
6098;DHT22;3077;50.922;6.584;2023-04-03T01:50:15;2.90;99.90
6098;DHT22;3077;50.922;6.584;2023-04-03T01:52:40;2.90;99.90
6098;DHT22;3077;50.922;6.584;2023-04-03T01:55:06;2.90;99.90
6098;DHT22;3077;50.922;6.584;2023-04-03T01:57:32;2.90;99.90
6098;DHT22;3077;50.922;6.584;2023-04-03T01:59:57;2.80;99.90
6098;DHT22;3077;50.922;6.584;2023-04-03T02:02:23;2.80;99.90
6098;DHT22;3077;50.922;6.584;2023-04-03T02:04:48;2.80;99.90
6098;DHT22;3077;50.922;6.584;2023-04-03T02:07:14;2.70;99.90
6098;DHT22;3077;50.922;6.584;2023-04-03T02:09:40;2.70;99.90
6098;DHT22;3077;50.922;6.584;2023-04-03T02:12:05;2.70;99.90
6098;DHT22;3077;50.922;6.584;2023-04-03T02:14:31;2.70;99.90
6098;DHT22;3077;50.922;6.584;2023-04-03T02:16:57;2.70;99.90
6098;DHT22;3077;50.922;6.584;2023-04-03T02:19:23;2.60;99.90
6098;DHT22;3077;50.922;6.584;2023-04-03T02:21:48;2.60;99.90
6098;DHT22;3077;50.922;6.584;2023-04-03T02:24:14;2.50;99.90
6098;DHT22;3077;50.922;6.584;2023-04-03T02:26:40;2.60;99.90
6098;DHT22;3077;50.922;6.584;2023-04-03T02:29:05;2.50;99.90
6098;DHT22;3077;50.922;6.584;2023-04-03T02:31:31;2.50;99.90
6098;DHT22;3077;50.922;6.584;2023-04-03T02:33:57;2.50;99.90
6098;DHT22;3077;50.922;6.584;2023-04-03T02:36:22;2.50;99.90
6098;DHT22;3077;50.922;6.584;2023-04-03T02:38:48;2.50;99.90
6098;DHT22;3077;50.922;6.584;2023-04-03T02:41:13;2.50;99.90
6098;DHT22;3077;50.922;6.584;2023-04-03T02:43:39;2.40;99.90
6098;DHT22;3077;50.922;6.584;2023-04-03T02:46:06;2.40;99.90
6098;DHT22;3077;50.922;6.584;2023-04-03T02:48:32;2.40;99.90
6098;DHT22;3077;50.922;6.584;2023-04-03T02:50:57;2.30;99.90
6098;DHT22;3077;50.922;6.584;2023-04-03T02:53:23;2.30;99.90
6098;DHT22;3077;50.922;6.584;2023-04-03T02:55:49;2.40;99.90
6098;DHT22;3077;50.922;6.584;2023-04-03T02:58:14;2.30;99.90
6098;DHT22;3077;50.922;6.584;2023-04-03T03:00:40;2.40;99.90
6098;DHT22;3077;50.922;6.584;2023-04-03T03:03:06;2.30;99.90
6098;DHT22;3077;50.922;6.584;2023-04-03T03:05:32;2.30;99.90
6098;DHT22;3077;50.922;6.584;2023-04-03T03:07:57;2.30;99.90
6098;DHT22;3077;50.922;6.584;2023-04-03T03:10:23;2.30;99.90
6098;DHT22;3077;50.922;6.584;2023-04-03T03:12:49;2.20;99.90
6098;DHT22;3077;50.922;6.584;2023-04-03T03:15:14;2.30;99.90
6098;DHT22;3077;50.922;6.584;2023-04-03T03:17:41;2.30;99.90
6098;DHT22;3077;50.922;6.584;2023-04-03T03:20:08;2.20;99.90
6098;DHT22;3077;50.922;6.584;2023-04-03T03:22:34;2.20;99.90
6098;DHT22;3077;50.922;6.584;2023-04-03T03:25:00;2.10;99.90
6098;DHT22;3077;50.922;6.584;2023-04-03T03:27:26;2.10;99.90
6098;DHT22;3077;50.922;6.584;2023-04-03T03:29:52;2.10;99.90
6098;DHT22;3077;50.922;6.584;2023-04-03T03:32:17;2.00;99.90
6098;DHT22;3077;50.922;6.584;2023-04-03T03:34:43;2.00;99.90
6098;DHT22;3077;50.922;6.584;2023-04-03T03:37:09;2.00;99.90
6098;DHT22;3077;50.922;6.584;2023-04-03T03:39:34;2.10;99.90
6098;DHT22;3077;50.922;6.584;2023-04-03T03:42:00;2.00;99.90
6098;DHT22;3077;50.922;6.584;2023-04-03T03:44:26;2.00;99.90
6098;DHT22;3077;50.922;6.584;2023-04-03T03:46:51;2.00;99.90
6098;DHT22;3077;50.922;6.584;2023-04-03T03:49:17;1.90;99.90
6098;DHT22;3077;50.922;6.584;2023-04-03T03:51:42;1.90;99.90
6098;DHT22;3077;50.922;6.584;2023-04-03T03:54:09;1.90;99.90
6098;DHT22;3077;50.922;6.584;2023-04-03T03:56:35;1.90;99.90
6098;DHT22;3077;50.922;6.584;2023-04-03T03:59:00;1.90;99.90
6098;DHT22;3077;50.922;6.584;2023-04-03T04:01:26;1.90;99.90
6098;DHT22;3077;50.922;6.584;2023-04-03T04:03:51;1.90;99.90
6098;DHT22;3077;50.922;6.584;2023-04-03T04:06:19;1.90;99.90
6098;DHT22;3077;50.922;6.584;2023-04-03T04:08:45;2.00;99.90
6098;DHT22;3077;50.922;6.584;2023-04-03T04:11:10;1.90;99.90
6098;DHT22;3077;50.922;6.584;2023-04-03T04:13:36;1.90;99.90
6098;DHT22;3077;50.922;6.584;2023-04-03T04:16:02;1.90;99.90
6098;DHT22;3077;50.922;6.584;2023-04-03T04:18:27;2.00;99.90
6098;DHT22;3077;50.922;6.584;2023-04-03T04:20:53;1.90;99.90
6098;DHT22;3077;50.922;6.584;2023-04-03T04:23:18;1.90;99.90
6098;DHT22;3077;50.922;6.584;2023-04-03T04:25:45;1.90;99.90
6098;DHT22;3077;50.922;6.584;2023-04-03T04:28:11;1.90;99.90
6098;DHT22;3077;50.922;6.584;2023-04-03T04:30:37;1.90;99.90
6098;DHT22;3077;50.922;6.584;2023-04-03T04:33:03;1.80;99.90
6098;DHT22;3077;50.922;6.584;2023-04-03T04:35:28;1.80;99.90
6098;DHT22;3077;50.922;6.584;2023-04-03T04:37:54;2.20;99.90
6098;DHT22;3077;50.922;6.584;2023-04-03T04:40:20;1.80;99.90
6098;DHT22;3077;50.922;6.584;2023-04-03T04:42:46;1.70;99.90
6098;DHT22;3077;50.922;6.584;2023-04-03T04:45:11;1.70;99.90
6098;DHT22;3077;50.922;6.584;2023-04-03T04:47:37;1.70;99.90
6098;DHT22;3077;50.922;6.584;2023-04-03T04:50:03;1.70;99.90
6098;DHT22;3077;50.922;6.584;2023-04-03T04:52:28;1.70;99.90
6098;DHT22;3077;50.922;6.584;2023-04-03T04:54:54;1.70;99.90
6098;DHT22;3077;50.922;6.584;2023-04-03T04:57:19;1.70;99.90
6098;DHT22;3077;50.922;6.584;2023-04-03T04:59:45;1.70;99.90
6098;DHT22;3077;50.922;6.584;2023-04-03T05:02:11;1.70;99.90
6098;DHT22;3077;50.922;6.584;2023-04-03T05:04:36;1.70;99.90
6098;DHT22;3077;50.922;6.584;2023-04-03T05:07:02;1.70;99.90
6098;DHT22;3077;50.922;6.584;2023-04-03T05:09:28;1.70;99.90
6098;DHT22;3077;50.922;6.584;2023-04-03T05:11:53;1.60;99.90
6098;DHT22;3077;50.922;6.584;2023-04-03T05:14:19;1.60;99.90
6098;DHT22;3077;50.922;6.584;2023-04-03T05:16:45;1.70;99.90
6098;DHT22;3077;50.922;6.584;2023-04-03T05:19:11;1.70;99.90
6098;DHT22;3077;50.922;6.584;2023-04-03T05:21:36;1.70;99.90
6098;DHT22;3077;50.922;6.584;2023-04-03T05:24:02;1.60;99.90
6098;DHT22;3077;50.922;6.584;2023-04-03T05:26:30;1.60;99.90
6098;DHT22;3077;50.922;6.584;2023-04-03T05:28:55;1.60;99.90
6098;DHT22;3077;50.922;6.584;2023-04-03T05:31:21;1.70;99.90
6098;DHT22;3077;50.922;6.584;2023-04-03T05:33:48;1.70;99.90
6098;DHT22;3077;50.922;6.584;2023-04-03T05:36:15;1.70;99.90
6098;DHT22;3077;50.922;6.584;2023-04-03T05:38:41;1.70;99.90
6098;DHT22;3077;50.922;6.584;2023-04-03T05:41:06;1.80;99.90
6098;DHT22;3077;50.922;6.584;2023-04-03T05:43:32;1.80;99.90
6098;DHT22;3077;50.922;6.584;2023-04-03T05:45:59;1.90;99.90
6098;DHT22;3077;50.922;6.584;2023-04-03T05:48:24;1.90;99.90
6098;DHT22;3077;50.922;6.584;2023-04-03T05:50:51;1.90;99.90
6098;DHT22;3077;50.922;6.584;2023-04-03T05:53:22;1.90;99.90
6098;DHT22;3077;50.922;6.584;2023-04-03T05:55:49;2.00;99.90
6098;DHT22;3077;50.922;6.584;2023-04-03T05:58:14;2.00;99.90
6098;DHT22;3077;50.922;6.584;2023-04-03T06:00:40;2.00;99.90
6098;DHT22;3077;50.922;6.584;2023-04-03T06:03:06;2.10;99.90
6098;DHT22;3077;50.922;6.584;2023-04-03T06:05:31;2.20;99.90
6098;DHT22;3077;50.922;6.584;2023-04-03T06:07:57;2.20;99.90
6098;DHT22;3077;50.922;6.584;2023-04-03T06:10:23;2.20;99.90
6098;DHT22;3077;50.922;6.584;2023-04-03T06:12:48;2.30;99.90
6098;DHT22;3077;50.922;6.584;2023-04-03T06:15:14;2.30;99.90
6098;DHT22;3077;50.922;6.584;2023-04-03T06:17:42;2.40;99.90
6098;DHT22;3077;50.922;6.584;2023-04-03T06:20:08;2.50;99.90
6098;DHT22;3077;50.922;6.584;2023-04-03T06:22:35;2.50;99.90
6098;DHT22;3077;50.922;6.584;2023-04-03T06:25:01;2.60;99.90
6098;DHT22;3077;50.922;6.584;2023-04-03T06:27:27;2.70;99.90
6098;DHT22;3077;50.922;6.584;2023-04-03T06:29:52;2.70;99.90
6098;DHT22;3077;50.922;6.584;2023-04-03T06:32:18;2.80;99.90
6098;DHT22;3077;50.922;6.584;2023-04-03T06:34:44;2.90;99.90
6098;DHT22;3077;50.922;6.584;2023-04-03T06:37:20;2.90;99.90
6098;DHT22;3077;50.922;6.584;2023-04-03T06:39:47;3.00;99.90
6098;DHT22;3077;50.922;6.584;2023-04-03T06:42:12;3.00;99.90
6098;DHT22;3077;50.922;6.584;2023-04-03T06:44:38;3.10;99.90
6098;DHT22;3077;50.922;6.584;2023-04-03T06:47:04;3.20;99.90
6098;DHT22;3077;50.922;6.584;2023-04-03T06:49:31;3.30;99.90
6098;DHT22;3077;50.922;6.584;2023-04-03T06:51:57;3.30;99.90
6098;DHT22;3077;50.922;6.584;2023-04-03T06:54:23;3.40;99.90
6098;DHT22;3077;50.922;6.584;2023-04-03T06:56:48;3.20;99.90
6098;DHT22;3077;50.922;6.584;2023-04-03T06:59:15;3.50;99.90
6098;DHT22;3077;50.922;6.584;2023-04-03T07:01:41;3.60;99.90
6098;DHT22;3077;50.922;6.584;2023-04-03T07:04:07;3.70;99.90
6098;DHT22;3077;50.922;6.584;2023-04-03T07:06:34;3.70;99.90
6098;DHT22;3077;50.922;6.584;2023-04-03T07:09:00;3.80;99.90
6098;DHT22;3077;50.922;6.584;2023-04-03T07:11:26;3.80;99.90
6098;DHT22;3077;50.922;6.584;2023-04-03T07:13:52;3.90;99.90
6098;DHT22;3077;50.922;6.584;2023-04-03T07:16:18;4.00;99.90
6098;DHT22;3077;50.922;6.584;2023-04-03T07:18:44;4.10;99.90
6098;DHT22;3077;50.922;6.584;2023-04-03T07:21:10;4.40;99.90
6098;DHT22;3077;50.922;6.584;2023-04-03T07:23:37;4.30;99.90
6098;DHT22;3077;50.922;6.584;2023-04-03T07:26:03;4.40;99.90
6098;DHT22;3077;50.922;6.584;2023-04-03T07:28:28;4.40;99.90
6098;DHT22;3077;50.922;6.584;2023-04-03T07:31:02;4.40;99.90
6098;DHT22;3077;50.922;6.584;2023-04-03T07:33:28;4.80;99.90
6098;DHT22;3077;50.922;6.584;2023-04-03T07:35:54;4.70;99.90
6098;DHT22;3077;50.922;6.584;2023-04-03T07:38:20;4.60;99.90
6098;DHT22;3077;50.922;6.584;2023-04-03T07:40:47;4.70;99.90
6098;DHT22;3077;50.922;6.584;2023-04-03T07:43:14;4.80;99.90
6098;DHT22;3077;50.922;6.584;2023-04-03T07:45:40;4.90;99.90
6098;DHT22;3077;50.922;6.584;2023-04-03T07:48:05;5.00;99.90
6098;DHT22;3077;50.922;6.584;2023-04-03T07:50:31;5.10;99.90
6098;DHT22;3077;50.922;6.584;2023-04-03T07:52:58;5.10;99.90
6098;DHT22;3077;50.922;6.584;2023-04-03T07:55:24;5.10;99.90
6098;DHT22;3077;50.922;6.584;2023-04-03T07:57:50;5.20;99.90
6098;DHT22;3077;50.922;6.584;2023-04-03T08:00:16;5.30;99.90
6098;DHT22;3077;50.922;6.584;2023-04-03T08:02:43;5.20;99.90
6098;DHT22;3077;50.922;6.584;2023-04-03T08:05:10;5.30;99.90
6098;DHT22;3077;50.922;6.584;2023-04-03T08:07:37;5.30;99.90
6098;DHT22;3077;50.922;6.584;2023-04-03T08:10:03;5.30;99.90
6098;DHT22;3077;50.922;6.584;2023-04-03T08:12:29;5.40;99.90
6098;DHT22;3077;50.922;6.584;2023-04-03T08:14:55;5.50;99.90
6098;DHT22;3077;50.922;6.584;2023-04-03T08:17:21;5.60;99.90
6098;DHT22;3077;50.922;6.584;2023-04-03T08:19:47;5.60;99.90
6098;DHT22;3077;50.922;6.584;2023-04-03T08:22:12;5.60;99.90
6098;DHT22;3077;50.922;6.584;2023-04-03T08:24:38;5.60;99.90
6098;DHT22;3077;50.922;6.584;2023-04-03T08:27:03;5.60;99.90
6098;DHT22;3077;50.922;6.584;2023-04-03T08:29:29;5.70;99.90
6098;DHT22;3077;50.922;6.584;2023-04-03T08:31:55;5.80;99.90
6098;DHT22;3077;50.922;6.584;2023-04-03T08:34:20;5.90;99.90
6098;DHT22;3077;50.922;6.584;2023-04-03T08:36:47;6.10;99.90
6098;DHT22;3077;50.922;6.584;2023-04-03T08:39:12;6.10;99.90
6098;DHT22;3077;50.922;6.584;2023-04-03T08:41:39;6.20;99.90
6098;DHT22;3077;50.922;6.584;2023-04-03T08:49:43;6.50;99.90
6098;DHT22;3077;50.922;6.584;2023-04-03T08:52:24;6.50;99.90
6098;DHT22;3077;50.922;6.584;2023-04-03T08:54:56;6.70;99.90
6098;DHT22;3077;50.922;6.584;2023-04-03T08:57:36;6.90;99.90
6098;DHT22;3077;50.922;6.584;2023-04-03T09:00:13;6.90;99.90
6098;DHT22;3077;50.922;6.584;2023-04-03T09:02:44;7.10;99.90
6098;DHT22;3077;50.922;6.584;2023-04-03T09:05:18;7.10;99.90
6098;DHT22;3077;50.922;6.584;2023-04-03T09:08:11;7.20;99.90
6098;DHT22;3077;50.922;6.584;2023-04-03T09:10:39;7.30;99.90
6098;DHT22;3077;50.922;6.584;2023-04-03T09:15:46;7.50;99.90
6098;DHT22;3077;50.922;6.584;2023-04-03T09:26:08;7.90;99.90
6098;DHT22;3077;50.922;6.584;2023-04-03T09:28:38;7.90;99.90
6098;DHT22;3077;50.922;6.584;2023-04-03T09:31:39;8.30;99.90
6098;DHT22;3077;50.922;6.584;2023-04-03T09:34:41;8.10;99.90
6098;DHT22;3077;50.922;6.584;2023-04-03T09:37:01;8.10;99.90
6098;DHT22;3077;50.922;6.584;2023-04-03T09:39:32;8.30;99.90
6098;DHT22;3077;50.922;6.584;2023-04-03T09:41:59;8.40;99.90
6098;DHT22;3077;50.922;6.584;2023-04-03T09:44:28;8.60;99.90
6098;DHT22;3077;50.922;6.584;2023-04-03T09:46:54;8.50;99.90
6098;DHT22;3077;50.922;6.584;2023-04-03T09:49:20;8.50;99.90
6098;DHT22;3077;50.922;6.584;2023-04-03T09:51:45;8.70;99.90
6098;DHT22;3077;50.922;6.584;2023-04-03T09:54:25;8.80;99.90
6098;DHT22;3077;50.922;6.584;2023-04-03T09:56:53;9.20;99.90
6098;DHT22;3077;50.922;6.584;2023-04-03T09:59:20;9.10;99.90
6098;DHT22;3077;50.922;6.584;2023-04-03T10:02:02;9.00;99.90
6098;DHT22;3077;50.922;6.584;2023-04-03T10:04:39;9.20;99.90
6098;DHT22;3077;50.922;6.584;2023-04-03T10:07:29;9.20;99.90
6098;DHT22;3077;50.922;6.584;2023-04-03T10:09:56;9.20;99.90
6098;DHT22;3077;50.922;6.584;2023-04-03T10:12:22;9.30;99.90
6098;DHT22;3077;50.922;6.584;2023-04-03T10:14:55;9.30;99.90
6098;DHT22;3077;50.922;6.584;2023-04-03T10:19:56;9.50;98.10
6098;DHT22;3077;50.922;6.584;2023-04-03T10:28:57;9.90;93.10
6098;DHT22;3077;50.922;6.584;2023-04-03T10:31:46;10.00;92.30
6098;DHT22;3077;50.922;6.584;2023-04-03T10:39:40;10.20;91.90
6098;DHT22;3077;50.922;6.584;2023-04-03T10:45:19;10.40;79.80
6098;DHT22;3077;50.922;6.584;2023-04-03T10:50:48;10.50;76.90
6098;DHT22;3077;50.922;6.584;2023-04-03T10:59:05;10.70;62.30
6098;DHT22;3077;50.922;6.584;2023-04-03T11:01:36;10.80;64.20
6098;DHT22;3077;50.922;6.584;2023-04-03T11:04:04;11.00;74.70
6098;DHT22;3077;50.922;6.584;2023-04-03T11:07:08;11.00;60.10
6098;DHT22;3077;50.922;6.584;2023-04-03T11:09:40;11.30;69.90
6098;DHT22;3077;50.922;6.584;2023-04-03T11:12:21;11.30;58.60
6098;DHT22;3077;50.922;6.584;2023-04-03T11:14:50;11.40;60.20
6098;DHT22;3077;50.922;6.584;2023-04-03T11:20:21;11.50;58.50
6098;DHT22;3077;50.922;6.584;2023-04-03T11:22:58;11.50;53.30
6098;DHT22;3077;50.922;6.584;2023-04-03T11:25:30;11.70;50.50
6098;DHT22;3077;50.922;6.584;2023-04-03T11:27:59;11.80;47.70
6098;DHT22;3077;50.922;6.584;2023-04-03T11:33:40;12.10;47.30
6098;DHT22;3077;50.922;6.584;2023-04-03T11:36:12;12.10;42.20
6098;DHT22;3077;50.922;6.584;2023-04-03T11:38:43;12.10;38.60
6098;DHT22;3077;50.922;6.584;2023-04-03T11:41:11;12.20;38.50
6098;DHT22;3077;50.922;6.584;2023-04-03T11:43:55;12.20;35.90
6098;DHT22;3077;50.922;6.584;2023-04-03T11:49:51;12.40;35.10
6098;DHT22;3077;50.922;6.584;2023-04-03T12:04:10;16.40;19.40
6098;DHT22;3077;50.922;6.584;2023-04-03T12:19:53;18.70;8.90
6098;DHT22;3077;50.922;6.584;2023-04-03T12:22:20;19.00;7.30
6098;DHT22;3077;50.922;6.584;2023-04-03T12:24:49;19.40;7.70
6098;DHT22;3077;50.922;6.584;2023-04-03T12:29:56;20.30;5.20
6098;DHT22;3077;50.922;6.584;2023-04-03T12:43:43;20.30;2.10
6098;DHT22;3077;50.922;6.584;2023-04-03T12:46:17;21.80;3.20
6098;DHT22;3077;50.922;6.584;2023-04-03T12:48:56;21.60;2.60
6098;DHT22;3077;50.922;6.584;2023-04-03T12:51:33;21.80;1.40
6098;DHT22;3077;50.922;6.584;2023-04-03T12:54:31;22.10;1.00
6098;DHT22;3077;50.922;6.584;2023-04-03T12:57:16;22.40;1.00
6098;DHT22;3077;50.922;6.584;2023-04-03T12:59:42;22.30;1.00
6098;DHT22;3077;50.922;6.584;2023-04-03T13:02:26;21.80;1.00
6098;DHT22;3077;50.922;6.584;2023-04-03T13:04:58;21.50;1.00
6098;DHT22;3077;50.922;6.584;2023-04-03T13:07:33;21.80;1.00
6098;DHT22;3077;50.922;6.584;2023-04-03T13:10:20;22.20;1.00
6098;DHT22;3077;50.922;6.584;2023-04-03T13:12:47;22.50;1.00
6098;DHT22;3077;50.922;6.584;2023-04-03T13:15:27;22.50;1.00
6098;DHT22;3077;50.922;6.584;2023-04-03T13:17:53;22.60;1.00
6098;DHT22;3077;50.922;6.584;2023-04-03T13:20:26;22.30;1.00
6098;DHT22;3077;50.922;6.584;2023-04-03T13:23:04;21.90;1.00
6098;DHT22;3077;50.922;6.584;2023-04-03T13:25:39;21.70;1.00
6098;DHT22;3077;50.922;6.584;2023-04-03T13:28:09;21.90;1.00
6098;DHT22;3077;50.922;6.584;2023-04-03T13:30:37;22.10;1.00
6098;DHT22;3077;50.922;6.584;2023-04-03T13:33:17;22.50;1.00
6098;DHT22;3077;50.922;6.584;2023-04-03T13:35:44;22.50;1.00
6098;DHT22;3077;50.922;6.584;2023-04-03T13:40:53;23.00;1.00
6098;DHT22;3077;50.922;6.584;2023-04-03T13:43:27;22.60;1.00
6098;DHT22;3077;50.922;6.584;2023-04-03T13:46:24;22.50;1.00
6098;DHT22;3077;50.922;6.584;2023-04-03T13:48:52;23.20;1.00
6098;DHT22;3077;50.922;6.584;2023-04-03T13:51:22;23.50;1.00
6098;DHT22;3077;50.922;6.584;2023-04-03T13:56:21;23.60;1.00
6098;DHT22;3077;50.922;6.584;2023-04-03T14:01:49;24.00;1.00
6098;DHT22;3077;50.922;6.584;2023-04-03T14:04:20;24.00;1.00
6098;DHT22;3077;50.922;6.584;2023-04-03T14:06:47;24.20;1.00
6098;DHT22;3077;50.922;6.584;2023-04-03T14:09:15;24.40;1.00
6098;DHT22;3077;50.922;6.584;2023-04-03T14:11:41;24.40;1.00
6098;DHT22;3077;50.922;6.584;2023-04-03T14:14:23;24.20;1.00
6098;DHT22;3077;50.922;6.584;2023-04-03T14:16:53;23.80;1.00
6098;DHT22;3077;50.922;6.584;2023-04-03T14:19:31;23.50;1.00
6098;DHT22;3077;50.922;6.584;2023-04-03T14:21:59;23.30;1.00
6098;DHT22;3077;50.922;6.584;2023-04-03T14:24:26;23.80;1.00
6098;DHT22;3077;50.922;6.584;2023-04-03T14:26:54;24.10;1.00
6098;DHT22;3077;50.922;6.584;2023-04-03T14:29:21;23.90;1.00
6098;DHT22;3077;50.922;6.584;2023-04-03T14:31:48;24.00;1.00
6098;DHT22;3077;50.922;6.584;2023-04-03T14:34:15;24.00;1.00
6098;DHT22;3077;50.922;6.584;2023-04-03T14:36:43;24.10;1.00
6098;DHT22;3077;50.922;6.584;2023-04-03T14:39:15;23.80;1.00
6098;DHT22;3077;50.922;6.584;2023-04-03T14:41:42;23.90;1.00
6098;DHT22;3077;50.922;6.584;2023-04-03T14:44:08;24.40;1.00
6098;DHT22;3077;50.922;6.584;2023-04-03T14:46:36;24.70;1.00
6098;DHT22;3077;50.922;6.584;2023-04-03T14:49:03;25.10;1.00
6098;DHT22;3077;50.922;6.584;2023-04-03T14:51:33;25.30;1.00
6098;DHT22;3077;50.922;6.584;2023-04-03T14:53:59;24.30;1.00
6098;DHT22;3077;50.922;6.584;2023-04-03T14:56:28;24.20;1.00
6098;DHT22;3077;50.922;6.584;2023-04-03T14:58:57;24.60;1.00
6098;DHT22;3077;50.922;6.584;2023-04-03T15:01:24;25.10;1.00
6098;DHT22;3077;50.922;6.584;2023-04-03T15:03:50;24.80;1.00
6098;DHT22;3077;50.922;6.584;2023-04-03T15:06:16;24.90;1.00
6098;DHT22;3077;50.922;6.584;2023-04-03T15:08:42;25.40;1.00
6098;DHT22;3077;50.922;6.584;2023-04-03T15:11:09;25.70;1.00
6098;DHT22;3077;50.922;6.584;2023-04-03T15:13:35;25.80;1.00
6098;DHT22;3077;50.922;6.584;2023-04-03T15:16:01;25.50;1.00
6098;DHT22;3077;50.922;6.584;2023-04-03T15:18:32;25.00;1.00
6098;DHT22;3077;50.922;6.584;2023-04-03T15:21:01;24.80;1.00
6098;DHT22;3077;50.922;6.584;2023-04-03T15:23:27;24.60;1.00
6098;DHT22;3077;50.922;6.584;2023-04-03T15:25:53;24.20;1.00
6098;DHT22;3077;50.922;6.584;2023-04-03T15:28:32;24.40;1.00
6098;DHT22;3077;50.922;6.584;2023-04-03T15:30:58;24.60;1.00
6098;DHT22;3077;50.922;6.584;2023-04-03T15:33:24;24.40;1.00
6098;DHT22;3077;50.922;6.584;2023-04-03T15:35:50;24.60;1.00
6098;DHT22;3077;50.922;6.584;2023-04-03T15:38:16;24.90;1.00
6098;DHT22;3077;50.922;6.584;2023-04-03T15:40:42;25.20;1.00
6098;DHT22;3077;50.922;6.584;2023-04-03T15:43:09;25.20;1.00
6098;DHT22;3077;50.922;6.584;2023-04-03T15:45:36;25.30;1.00
6098;DHT22;3077;50.922;6.584;2023-04-03T15:48:03;25.60;1.00
6098;DHT22;3077;50.922;6.584;2023-04-03T15:50:29;25.40;1.00
6098;DHT22;3077;50.922;6.584;2023-04-03T15:52:55;25.10;1.00
6098;DHT22;3077;50.922;6.584;2023-04-03T15:55:24;25.30;1.00
6098;DHT22;3077;50.922;6.584;2023-04-03T15:57:51;25.40;1.00
6098;DHT22;3077;50.922;6.584;2023-04-03T16:00:17;25.30;1.00
6098;DHT22;3077;50.922;6.584;2023-04-03T16:02:44;25.10;1.00
6098;DHT22;3077;50.922;6.584;2023-04-03T16:05:11;24.50;1.00
6098;DHT22;3077;50.922;6.584;2023-04-03T16:07:47;24.30;1.00
6098;DHT22;3077;50.922;6.584;2023-04-03T16:10:18;24.20;1.00
6098;DHT22;3077;50.922;6.584;2023-04-03T16:12:44;24.50;1.00
6098;DHT22;3077;50.922;6.584;2023-04-03T16:15:11;24.70;1.00
6098;DHT22;3077;50.922;6.584;2023-04-03T16:17:38;24.80;1.00
6098;DHT22;3077;50.922;6.584;2023-04-03T16:20:07;24.70;1.00
6098;DHT22;3077;50.922;6.584;2023-04-03T16:22:33;24.60;1.00
6098;DHT22;3077;50.922;6.584;2023-04-03T16:24:59;26.20;1.00
6098;DHT22;3077;50.922;6.584;2023-04-03T16:27:25;24.20;1.00
6098;DHT22;3077;50.922;6.584;2023-04-03T16:29:54;23.30;1.00
6098;DHT22;3077;50.922;6.584;2023-04-03T16:32:20;23.10;1.00
6098;DHT22;3077;50.922;6.584;2023-04-03T16:34:46;23.00;1.00
6098;DHT22;3077;50.922;6.584;2023-04-03T16:37:12;23.00;1.00
6098;DHT22;3077;50.922;6.584;2023-04-03T16:39:37;22.70;1.00
6098;DHT22;3077;50.922;6.584;2023-04-03T16:42:03;23.00;1.00
6098;DHT22;3077;50.922;6.584;2023-04-03T16:44:28;23.20;1.00
6098;DHT22;3077;50.922;6.584;2023-04-03T16:46:54;23.20;1.00
6098;DHT22;3077;50.922;6.584;2023-04-03T16:49:20;23.10;1.00
6098;DHT22;3077;50.922;6.584;2023-04-03T16:51:47;22.60;1.00
6098;DHT22;3077;50.922;6.584;2023-04-03T16:54:13;22.80;1.00
6098;DHT22;3077;50.922;6.584;2023-04-03T16:56:39;23.20;1.00
6098;DHT22;3077;50.922;6.584;2023-04-03T16:59:05;23.60;1.00
6098;DHT22;3077;50.922;6.584;2023-04-03T17:01:30;24.00;1.00
6098;DHT22;3077;50.922;6.584;2023-04-03T17:03:56;23.70;1.00
6098;DHT22;3077;50.922;6.584;2023-04-03T17:06:22;23.40;1.00
6098;DHT22;3077;50.922;6.584;2023-04-03T17:08:49;22.90;1.00
6098;DHT22;3077;50.922;6.584;2023-04-03T17:11:16;22.60;1.00
6098;DHT22;3077;50.922;6.584;2023-04-03T17:13:42;21.90;1.00
6098;DHT22;3077;50.922;6.584;2023-04-03T17:16:10;21.20;1.00
6098;DHT22;3077;50.922;6.584;2023-04-03T17:18:37;21.00;1.00
6098;DHT22;3077;50.922;6.584;2023-04-03T17:21:03;20.70;1.00
6098;DHT22;3077;50.922;6.584;2023-04-03T17:23:30;20.70;1.00
6098;DHT22;3077;50.922;6.584;2023-04-03T17:25:56;20.50;1.00
6098;DHT22;3077;50.922;6.584;2023-04-03T17:28:22;20.30;1.00
6098;DHT22;3077;50.922;6.584;2023-04-03T17:30:54;19.70;1.00
6098;DHT22;3077;50.922;6.584;2023-04-03T17:33:20;18.70;1.00
6098;DHT22;3077;50.922;6.584;2023-04-03T17:35:46;18.60;1.00
6098;DHT22;3077;50.922;6.584;2023-04-03T17:38:11;18.40;1.00
6098;DHT22;3077;50.922;6.584;2023-04-03T17:40:37;18.30;1.00
6098;DHT22;3077;50.922;6.584;2023-04-03T17:43:03;18.20;1.00
6098;DHT22;3077;50.922;6.584;2023-04-03T17:45:28;18.00;1.00
6098;DHT22;3077;50.922;6.584;2023-04-03T17:47:54;17.80;1.00
6098;DHT22;3077;50.922;6.584;2023-04-03T17:50:19;17.80;1.00
6098;DHT22;3077;50.922;6.584;2023-04-03T17:52:45;17.40;1.00
6098;DHT22;3077;50.922;6.584;2023-04-03T17:55:10;17.10;1.00
6098;DHT22;3077;50.922;6.584;2023-04-03T17:58:02;16.60;1.00
6098;DHT22;3077;50.922;6.584;2023-04-03T18:00:33;16.20;1.00
6098;DHT22;3077;50.922;6.584;2023-04-03T18:03:03;15.00;1.00
6098;DHT22;3077;50.922;6.584;2023-04-03T18:05:29;14.10;1.00
6098;DHT22;3077;50.922;6.584;2023-04-03T18:11:36;14.10;2.70
6098;DHT22;3077;50.922;6.584;2023-04-03T18:14:02;12.40;4.50